Time;durP1;ratioP1;P1;durP2;ratioP2;P2;SDS_P1;SDS_P2;PMS_P1;PMS_P2;Temp;Humidity;BMP_temperature;BMP_pressure;BME280_temperature;BME280_humidity;BME280_pressure;Samples;Min_cycle;Max_cycle;Signal;HPM_P1;HPM_P2
2021/11/01 00:01:33;;;;;;;19.40;11.60;;;;;;;11.05;84.38;98754.47;5104506;28;20024;-69
2021/11/01 00:04:03;;;;;;;26.25;15.00;;;;;;;11.08;84.17;98738.75;5102731;28;20020;-67
2021/11/01 00:06:30;;;;;;;20.98;10.57;;;;;;;10.91;85.30;98737.63;5104614;28;20020;-67
2021/11/01 00:08:56;;;;;;;16.02;8.77;;;;;;;11.18;85.19;98718.50;5104337;28;20035;-69
2021/11/01 00:11:21;;;;;;;26.00;15.15;;;;;;;11.08;85.06;98696.34;5104249;28;20012;-69
2021/11/01 00:13:47;;;;;;;13.38;8.43;;;;;;;11.01;85.97;98695.72;5104172;28;20065;-68
2021/11/01 00:16:12;;;;;;;20.27;11.18;;;;;;;11.31;84.77;98692.03;5104224;28;20035;-68
2021/11/01 00:18:37;;;;;;;28.65;18.20;;;;;;;10.93;86.11;98683.03;5103988;28;20124;-64
2021/11/01 00:21:03;;;;;;;18.35;10.18;;;;;;;11.23;85.29;98661.16;5103738;28;20047;-67
2021/11/01 00:23:29;;;;;;;22.17;11.40;;;;;;;11.09;86.10;98666.88;5103293;28;20086;-66
2021/11/01 00:25:54;;;;;;;15.63;9.15;;;;;;;11.33;85.48;98654.69;5101728;28;20111;-69
2021/11/01 00:28:20;;;;;;;24.73;12.30;;;;;;;11.36;85.36;98646.75;5103193;28;20031;-69
2021/11/01 00:30:45;;;;;;;29.45;16.13;;;;;;;11.19;85.96;98654.38;5103173;28;20039;-67
2021/11/01 00:33:11;;;;;;;14.27;8.45;;;;;;;11.27;86.47;98641.94;5103692;28;20020;-69
2021/11/01 00:35:37;;;;;;;27.42;15.55;;;;;;;11.13;86.94;98622.53;5103644;28;20057;-70
2021/11/01 00:38:03;;;;;;;22.58;13.05;;;;;;;11.37;86.10;98625.06;5103811;28;20248;-67
2021/11/01 00:40:29;;;;;;;15.00;10.15;;;;;;;11.21;87.10;98622.25;5103976;28;20680;-66
2021/11/01 00:42:54;;;;;;;22.60;11.82;;;;;;;11.23;86.89;98606.63;5103419;28;20020;-67
2021/11/01 00:45:19;;;;;;;24.80;13.05;;;;;;;10.99;88.14;98591.94;5103545;28;20050;-69
2021/11/01 00:47:45;;;;;;;14.68;9.25;;;;;;;11.02;88.48;98599.59;5103426;28;20022;-67
2021/11/01 00:50:10;;;;;;;15.75;9.65;;;;;;;11.30;87.44;98587.25;5103401;28;20032;-68
2021/11/01 00:52:36;;;;;;;12.60;7.47;;;;;;;11.33;87.53;98602.72;5102011;28;20016;-68
2021/11/01 00:55:05;;;;;;;18.02;12.32;;;;;;;11.14;88.39;98572.31;5103252;28;20031;-66
2021/11/01 00:57:31;;;;;;;14.88;7.85;;;;;;;11.21;89.22;98551.28;5103719;28;20024;-67
2021/11/01 00:59:58;;;;;;;17.35;10.35;;;;;;;11.39;88.20;98571.28;5102460;28;20038;-66
2021/11/01 01:02:25;;;;;;;18.27;12.50;;;;;;;11.26;89.25;98562.31;5103692;28;20514;-68
2021/11/01 01:04:50;;;;;;;13.88;9.13;;;;;;;11.46;88.51;98527.72;5103507;28;20466;-70
2021/11/01 01:07:15;;;;;;;17.50;8.05;;;;;;;11.50;88.51;98565.63;5102210;28;20041;-69
2021/11/01 01:09:41;;;;;;;17.90;11.80;;;;;;;11.49;88.67;98552.72;5103645;28;20024;-69
2021/11/01 01:12:07;;;;;;;17.20;10.75;;;;;;;11.49;88.44;98557.91;5102269;28;20456;-66
2021/11/01 01:14:40;;;;;;;21.15;11.70;;;;;;;11.33;88.75;98540.38;5103483;28;20020;-67
2021/11/01 01:17:05;;;;;;;25.88;14.75;;;;;;;11.38;88.90;98538.44;5103558;28;20020;-67
2021/11/01 01:19:43;;;;;;;16.52;8.55;;;;;;;11.52;87.91;98545.63;5103260;28;20076;-68
2021/11/01 01:22:14;;;;;;;12.57;7.57;;;;;;;11.44;88.61;98552.09;5103125;28;20040;-69
2021/11/01 01:24:39;;;;;;;18.40;10.82;;;;;;;11.38;88.35;98535.84;5103350;28;20035;-67
2021/11/01 01:27:05;;;;;;;18.52;11.65;;;;;;;11.35;89.02;98532.50;5103235;28;20021;-68
2021/11/01 01:29:31;;;;;;;20.55;12.38;;;;;;;11.35;88.64;98533.38;5103149;28;20099;-69
2021/11/01 01:31:56;;;;;;;13.70;7.82;;;;;;;11.35;88.64;98530.78;5103396;28;20039;-69
2021/11/01 01:34:23;;;;;;;17.40;12.20;;;;;;;11.43;87.48;98540.84;5103118;28;20020;-69
2021/11/01 01:36:49;;;;;;;14.80;9.55;;;;;;;11.50;87.06;98573.44;5103432;28;20031;-68
2021/11/01 01:39:15;;;;;;;30.80;17.50;;;;;;;11.30;87.58;98571.66;5103120;28;20031;-67
2021/11/01 01:41:47;;;;;;;24.25;14.15;;;;;;;11.35;87.10;98564.53;5103271;28;20048;-66
2021/11/01 01:44:13;;;;;;;20.58;11.80;;;;;;;11.49;86.42;98557.91;5105068;28;20024;-69
2021/11/01 01:46:38;;;;;;;20.85;12.80;;;;;;;11.47;85.68;98541.56;5104701;28;20063;-69
2021/11/01 01:49:04;;;;;;;21.77;12.65;;;;;;;11.35;86.66;98585.31;5105832;28;20016;-70
2021/11/01 01:51:30;;;;;;;23.75;12.10;;;;;;;11.28;86.81;98578.69;5107009;28;20101;-71
2021/11/01 01:53:58;;;;;;;24.48;11.32;;;;;;;11.51;85.62;98574.28;5106526;28;20055;-70
2021/11/01 01:56:25;;;;;;;13.82;9.07;;;;;;;11.46;85.27;98565.84;5107290;28;20023;-69
2021/11/01 01:58:57;;;;;;;17.30;11.85;;;;;;;11.18;86.67;98552.25;5106821;28;20103;-67
2021/11/01 02:01:23;;;;;;;22.05;14.57;;;;;;;10.96;87.27;98550.50;5106950;28;20024;-67
2021/11/01 02:03:50;;;;;;;19.63;12.18;;;;;;;11.03;87.63;98548.50;5106817;28;20115;-69
2021/11/01 02:06:39;;;;;;;20.75;11.77;;;;;;;10.96;87.93;98544.50;5107209;28;20024;-67
2021/11/01 02:09:30;;;;;;;13.88;8.95;;;;;;;11.10;87.49;98542.16;5106947;28;20114;-68
2021/11/01 02:12:05;;;;;;;28.85;17.98;;;;;;;11.09;87.19;98543.06;5106877;28;20020;-67
2021/11/01 02:14:43;;;;;;;24.88;13.40;;;;;;;11.17;86.39;98534.13;5106699;28;20039;-67
2021/11/01 02:17:12;;;;;;;26.38;13.45;;;;;;;11.10;87.47;98523.97;5107035;28;20016;-67
2021/11/01 02:19:46;;;;;;;23.92;16.48;;;;;;;11.07;87.52;98520.69;5105170;28;20028;-66
2021/11/01 02:22:14;;;;;;;16.08;10.82;;;;;;;11.23;86.96;98518.28;5106586;28;20070;-67
2021/11/01 02:24:58;;;;;;;26.27;14.77;;;;;;;11.17;87.03;98511.59;5106608;28;20032;-66
2021/11/01 02:27:26;;;;;;;24.67;14.38;;;;;;;11.19;87.37;98506.31;5106799;28;20028;-67
2021/11/01 02:29:52;;;;;;;19.75;12.80;;;;;;;11.27;86.67;98514.66;5106289;28;20020;-66
2021/11/01 02:32:20;;;;;;;18.13;9.82;;;;;;;11.29;87.01;98510.25;5106096;28;20020;-68
2021/11/01 02:34:45;;;;;;;20.30;11.02;;;;;;;11.14;87.92;98533.34;5106315;28;20020;-69
2021/11/01 02:37:11;;;;;;;18.67;10.63;;;;;;;11.17;88.11;98521.97;5106540;28;20032;-69
2021/11/01 02:39:51;;;;;;;25.27;15.55;;;;;;;11.25;88.30;98530.31;5106121;28;20030;-68
2021/11/01 02:42:18;;;;;;;14.45;8.23;;;;;;;11.25;88.69;98534.63;5106250;28;20054;-69
2021/11/01 02:45:08;;;;;;;18.65;9.02;;;;;;;11.28;88.62;98547.50;5106087;28;20035;-69
2021/11/01 02:47:34;;;;;;;20.92;11.70;;;;;;;11.24;89.12;98541.63;5106110;28;20054;-70
2021/11/01 02:50:01;;;;;;;18.15;10.95;;;;;;;11.29;88.73;98564.78;5105861;28;20031;-70
2021/11/01 02:52:28;;;;;;;23.23;13.15;;;;;;;11.20;89.52;98559.97;5105970;28;20044;-69
2021/11/01 02:54:55;;;;;;;16.48;8.70;;;;;;;11.35;89.73;98563.69;5105404;28;20016;-70
2021/11/01 02:57:21;;;;;;;20.85;11.15;;;;;;;11.27;89.46;98558.81;5105869;28;20024;-68
2021/11/01 02:59:47;;;;;;;32.28;18.08;;;;;;;11.14;90.23;98569.72;5105755;28;20095;-68
2021/11/01 03:02:12;;;;;;;26.90;14.65;;;;;;;11.07;90.58;98546.66;5105806;28;20069;-69
2021/11/01 03:04:38;;;;;;;31.92;16.45;;;;;;;11.04;90.44;98565.78;5105575;28;20103;-68
2021/11/01 03:07:05;;;;;;;40.83;23.98;;;;;;;10.98;90.85;98550.44;5104326;28;20020;-69
2021/11/01 03:09:32;;;;;;;22.13;13.23;;;;;;;11.11;90.07;98523.09;5105663;28;20031;-68
2021/11/01 03:12:00;;;;;;;24.77;14.75;;;;;;;11.00;89.89;98531.31;5105711;28;20046;-69
2021/11/01 03:14:28;;;;;;;25.88;14.25;;;;;;;11.07;89.87;98538.84;5105456;28;20020;-67
2021/11/01 03:16:58;;;;;;;45.80;24.67;;;;;;;10.75;91.76;98542.66;5104025;28;20035;-68
2021/11/01 03:19:29;;;;;;;42.90;23.67;;;;;;;10.73;91.78;98530.66;5105221;28;20070;-68
2021/11/01 03:21:57;;;;;;;45.13;24.13;;;;;;;10.66;92.46;98540.44;5105389;28;20044;-68
2021/11/01 03:24:22;;;;;;;29.85;15.02;;;;;;;10.86;90.85;98563.00;5105397;28;20024;-68
2021/11/01 03:26:49;;;;;;;40.15;22.13;;;;;;;10.69;91.99;98558.47;5105055;28;20353;-68
2021/11/01 03:29:15;;;;;;;38.28;21.33;;;;;;;10.62;93.12;98549.25;5104263;28;20574;-69
2021/11/01 03:31:42;;;;;;;38.88;20.98;;;;;;;10.71;92.21;98548.03;5103915;28;20027;-68
2021/11/01 03:34:09;;;;;;;40.85;23.83;;;;;;;10.62;92.98;98554.44;5104985;28;20020;-68
2021/11/01 03:36:36;;;;;;;35.67;20.23;;;;;;;10.68;92.44;98555.94;5104862;28;20043;-68
2021/11/01 03:39:08;;;;;;;41.45;23.45;;;;;;;10.65;92.49;98549.13;5103768;28;20333;-68
2021/11/01 03:41:34;;;;;;;39.25;22.60;;;;;;;10.66;92.12;98536.09;5105196;28;20044;-68
2021/11/01 03:44:05;;;;;;;40.75;22.73;;;;;;;10.53;93.39;98543.50;5105012;28;20405;-68
2021/11/01 03:46:40;;;;;;;42.25;23.20;;;;;;;10.64;92.40;98547.41;5104933;28;20093;-68
2021/11/01 03:49:08;;;;;;;1.80;1.00;;;;;;;10.96;90.47;98560.06;5104528;28;20084;-68
2021/11/01 03:51:41;;;;;;;3.20;2.08;;;;;;;10.91;90.37;98557.63;5104914;28;20024;-68
2021/11/01 03:54:07;;;;;;;1.48;1.38;;;;;;;10.71;91.83;98559.28;5104560;28;20020;-67
2021/11/01 03:56:35;;;;;;;0.52;0.50;;;;;;;10.81;90.82;98554.56;5103378;28;20046;-66
2021/11/01 03:59:01;;;;;;;1.10;1.10;;;;;;;10.74;91.46;98564.34;5104276;28;20063;-66
2021/11/01 04:01:27;;;;;;;0.98;0.98;;;;;;;10.59;92.39;98568.34;5104387;28;20031;-67
2021/11/01 04:03:53;;;;;;;2.00;1.75;;;;;;;10.93;90.87;98567.97;5104454;28;20043;-67
2021/11/01 04:06:19;;;;;;;1.10;1.02;;;;;;;10.82;90.05;98551.06;5103503;28;20040;-67
2021/11/01 04:08:45;;;;;;;1.55;1.45;;;;;;;10.81;91.17;98557.16;5104277;28;20069;-68
2021/11/01 04:11:12;;;;;;;0.20;0.20;;;;;;;10.82;90.79;98571.81;5104492;28;20026;-67
2021/11/01 04:13:38;;;;;;;0.68;0.68;;;;;;;10.76;91.07;98567.72;5104185;28;20060;-67
2021/11/01 04:16:12;;;;;;;0.57;0.57;;;;;;;10.73;91.87;98579.97;5104273;28;20039;-67
2021/11/01 04:21:15;;;;;;;0.30;0.30;;;;;;;10.86;90.25;98581.16;5103637;28;20139;-68
2021/11/01 04:23:40;;;;;;;0.30;0.30;;;;;;;10.68;91.32;98569.78;5104192;28;20020;-67
2021/11/01 04:26:06;;;;;;;0.20;0.20;;;;;;;10.55;92.25;98566.78;5104227;28;20024;-68
2021/11/01 04:28:31;;;;;;;0.40;0.40;;;;;;;10.63;92.22;98567.34;5102737;28;20020;-68
2021/11/01 04:31:10;;;;;;;1.88;1.70;;;;;;;10.74;91.31;98566.94;5104399;28;20020;-69
2021/11/01 04:33:37;;;;;;;0.68;0.68;;;;;;;10.49;92.33;98561.84;5104297;28;20027;-68
2021/11/01 04:36:03;;;;;;;1.75;1.65;;;;;;;10.41;92.89;98539.59;5103993;28;20054;-68
2021/11/01 04:41:05;;;;;;;0.50;0.50;;;;;;;10.49;92.56;98554.06;5104061;28;20031;-69
2021/11/01 04:54:31;;;;;;;0.20;0.20;;;;;;;10.33;93.85;98570.16;5104049;28;20038;-67
2021/11/01 04:56:57;;;;;;;5.10;1.65;;;;;;;10.31;94.47;98565.94;5103971;28;20024;-67
2021/11/01 04:59:23;;;;;;;0.30;0.30;;;;;;;10.59;92.97;98557.16;5103644;28;20020;-68
2021/11/01 05:01:53;;;;;;;0.82;0.82;;;;;;;10.61;92.36;98551.00;5103670;28;20027;-67
2021/11/01 05:04:28;;;;;;;0.68;0.68;;;;;;;10.56;92.21;98539.94;5103652;28;20083;-68
2021/11/01 05:06:59;;;;;;;0.85;0.85;;;;;;;10.70;91.17;98546.34;5103951;28;20024;-66
2021/11/01 05:09:47;;;;;;;0.45;0.45;;;;;;;10.56;91.96;98519.19;5103707;28;20097;-67
2021/11/01 05:15:24;;;;;;;0.20;0.20;;;;;;;10.49;92.88;98508.22;5098611;28;20036;-67
2021/11/01 05:18:00;;;;;;;0.30;0.30;;;;;;;10.50;92.58;98528.06;5103568;28;20058;-67
2021/11/01 05:25:49;;;;;;;0.20;0.20;;;;;;;10.53;92.59;98521.88;5103703;28;20020;-68
2021/11/01 05:28:30;;;;;;;0.73;0.73;;;;;;;10.59;92.11;98532.03;5103614;28;20044;-67
2021/11/01 05:31:01;;;;;;;11.98;3.40;;;;;;;10.52;92.65;98540.97;5103684;28;20030;-65
2021/11/01 05:35:51;;;;;;;0.30;0.30;;;;;;;10.70;91.79;98557.59;5103082;28;20024;-67
2021/11/01 05:38:17;;;;;;;0.57;0.57;;;;;;;10.49;92.37;98534.16;5103350;28;20032;-68
2021/11/01 05:40:42;;;;;;;0.20;0.20;;;;;;;10.64;91.57;98529.25;5103025;28;20031;-67
2021/11/01 05:43:08;;;;;;;0.32;0.32;;;;;;;10.58;91.81;98542.47;5102906;28;20428;-68
2021/11/01 05:45:33;;;;;;;0.25;0.25;;;;;;;10.47;92.58;98543.75;5103650;28;20033;-67
2021/11/01 05:48:01;;;;;;;0.70;0.70;;;;;;;10.44;93.32;98553.34;5103479;28;20016;-67
2021/11/01 05:50:29;;;;;;;0.40;0.40;;;;;;;10.47;93.25;98545.47;5103028;28;20042;-67
2021/11/01 05:52:57;;;;;;;1.38;1.27;;;;;;;10.44;93.72;98542.97;5103428;28;20384;-68
2021/11/01 06:03:19;;;;;;;2.25;2.15;;;;;;;10.43;94.28;98570.69;5103535;28;20031;-69
2021/11/01 06:13:24;;;;;;;0.25;0.25;;;;;;;10.48;93.68;98563.59;5103565;28;20028;-67
2021/11/01 06:13:37;;;;;;;2.45;2.25;;;;;;;10.55;93.23;98553.81;5103033;28;20107;-67
2021/11/01 06:16:03;;;;;;;0.38;0.38;;;;;;;10.51;93.50;98562.63;5103060;28;20079;-68
2021/11/01 06:18:38;;;;;;;0.30;0.30;;;;;;;10.50;93.31;98558.34;5103135;28;20028;-69
2021/11/01 06:21:06;;;;;;;0.35;0.35;;;;;;;10.47;94.06;98561.03;5102864;28;20066;-67
2021/11/01 06:23:33;;;;;;;1.10;1.10;;;;;;;10.62;93.34;98559.63;5102884;28;20452;-68
2021/11/01 06:25:59;;;;;;;1.85;1.75;;;;;;;10.43;94.42;98562.03;5103187;28;20387;-67
2021/11/01 06:28:25;;;;;;;1.08;1.08;;;;;;;10.52;94.13;98559.13;5103116;28;20035;-68
2021/11/01 06:30:53;;;;;;;1.73;1.60;;;;;;;10.36;95.15;98564.88;5106629;28;20027;-67
2021/11/01 06:42:27;;;;;;;0.40;0.40;;;;;;;10.48;95.17;98570.53;5106699;28;20046;-67
2021/11/01 06:57:41;;;;;;;0.28;0.28;;;;;;;10.56;95.85;98596.19;5106590;28;20059;-67
2021/11/01 07:16:59;;;;;;;0.30;0.30;;;;;;;10.56;96.25;98596.19;5106053;28;20028;-66
2021/11/01 08:27:09;;;;;;;8.95;1.40;;;;;;;11.00;97.73;98631.72;5104343;28;20024;-66
2021/11/01 08:35:27;;;;;;;0.30;0.30;;;;;;;11.08;96.96;98644.41;5104079;28;20034;-65
2021/11/01 08:46:17;;;;;;;0.40;0.40;;;;;;;11.09;97.67;98646.94;5104064;28;20081;-66
2021/11/01 08:49:12;;;;;;;0.30;0.30;;;;;;;11.13;97.14;98637.28;5104014;28;20042;-66
2021/11/01 09:02:37;;;;;;;0.60;0.60;;;;;;;11.19;97.30;98633.59;5103616;28;20092;-67
2021/11/01 09:05:36;;;;;;;0.20;0.20;;;;;;;11.21;97.37;98629.19;5103573;28;20028;-65
2021/11/01 09:08:03;;;;;;;0.32;0.32;;;;;;;11.24;97.40;98635.13;5103460;28;20024;-65
2021/11/01 09:13:25;;;;;;;1.10;1.10;;;;;;;11.32;97.33;98649.53;5103683;28;20028;-66
2021/11/01 09:21:29;;;;;;;0.30;0.30;;;;;;;11.27;97.77;98649.72;5102973;28;20044;-66
2021/11/01 09:24:29;;;;;;;0.60;0.60;;;;;;;11.33;97.48;98669.41;5103466;28;20028;-66
2021/11/01 09:26:56;;;;;;;3.10;2.92;;;;;;;11.35;97.85;98678.84;5103603;28;20031;-68
2021/11/01 09:42:52;;;;;;;0.20;0.20;;;;;;;11.39;97.13;98659.63;5103352;28;20031;-68
2021/11/01 09:45:20;;;;;;;0.63;0.63;;;;;;;11.49;96.60;98654.06;5101763;28;20090;-68
2021/11/01 09:47:47;;;;;;;0.28;0.28;;;;;;;11.43;96.52;98639.56;5103229;28;20024;-67
2021/11/01 09:50:17;;;;;;;0.75;0.75;;;;;;;11.45;96.15;98639.50;5102890;28;20090;-67
2021/11/01 09:52:55;;;;;;;0.25;0.25;;;;;;;11.39;96.84;98644.03;5103420;28;20020;-69
2021/11/01 09:55:47;;;;;;;0.30;0.30;;;;;;;11.44;96.72;98662.03;5103129;28;20043;-66
2021/11/01 10:00:58;;;;;;;0.30;0.30;;;;;;;11.45;96.58;98674.16;5102893;28;20062;-66
2021/11/01 10:03:40;;;;;;;0.30;0.30;;;;;;;11.38;96.96;98667.47;5102812;28;20032;-66
2021/11/01 10:06:07;;;;;;;2.20;2.00;;;;;;;11.45;97.06;98687.13;5106695;28;20470;-66
2021/11/01 10:08:33;;;;;;;0.45;0.45;;;;;;;11.40;96.92;98676.06;5107009;28;20253;-66
2021/11/01 10:11:00;;;;;;;0.47;0.47;;;;;;;11.47;96.72;98679.28;5106681;28;20016;-66
2021/11/01 10:13:28;;;;;;;27.17;2.17;;;;;;;11.44;96.69;98679.41;5106782;28;20103;-67
2021/11/01 10:18:47;;;;;;;0.35;0.35;;;;;;;11.48;96.95;98688.75;5106446;28;20063;-67
2021/11/01 10:21:18;;;;;;;0.40;0.40;;;;;;;11.47;96.97;98692.28;5105999;28;20062;-68
2021/11/01 10:23:48;;;;;;;0.30;0.30;;;;;;;11.48;97.19;98694.81;5106878;28;20101;-68
2021/11/01 10:26:16;;;;;;;0.73;0.73;;;;;;;11.43;97.33;98703.69;5106488;28;20272;-68
2021/11/01 10:28:43;;;;;;;0.30;0.30;;;;;;;11.38;97.21;98702.13;5106309;28;20020;-67
2021/11/01 10:31:12;;;;;;;1.00;1.00;;;;;;;11.40;96.99;98696.84;5106344;28;20020;-66
2021/11/01 10:33:45;;;;;;;0.30;0.30;;;;;;;11.40;96.65;98689.06;5106251;28;20024;-65
2021/11/01 10:36:30;;;;;;;0.30;0.30;;;;;;;11.36;96.65;98690.94;5106194;28;20042;-66
2021/11/01 10:39:00;;;;;;;0.20;0.20;;;;;;;11.35;96.81;98699.63;5106576;28;20043;-65
2021/11/01 10:41:37;;;;;;;0.20;0.20;;;;;;;11.29;96.88;98689.50;5106182;28;20097;-66
2021/11/01 11:11:31;;;;;;;0.30;0.30;;;;;;;11.70;97.07;98677.47;5105772;28;20282;-65
2021/11/01 11:14:09;;;;;;;0.30;0.30;;;;;;;11.73;96.72;98672.16;5105809;28;20024;-66
2021/11/01 11:24:57;;;;;;;8.80;3.03;;;;;;;11.66;96.16;98671.59;5105877;28;20450;-64
2021/11/01 11:27:47;;;;;;;0.32;0.32;;;;;;;11.71;95.11;98674.00;5105144;28;20067;-64
2021/11/01 11:42:20;;;;;;;0.57;0.57;;;;;;;11.61;95.85;98669.16;5105274;28;20024;-63
2021/11/01 11:47:42;;;;;;;0.20;0.20;;;;;;;11.71;95.03;98672.22;5105303;28;20038;-63
2021/11/01 11:50:19;;;;;;;0.20;0.20;;;;;;;11.61;94.72;98689.94;5104904;28;20020;-63
2021/11/01 11:52:46;;;;;;;0.55;0.40;;;;;;;11.54;95.40;98688.50;5104785;28;20027;-63
2021/11/01 11:55:19;;;;;;;0.40;0.40;;;;;;;11.61;95.23;98683.91;5104864;28;20116;-63
2021/11/01 11:57:58;;;;;;;0.90;0.90;;;;;;;11.59;95.05;98683.97;5104863;28;20065;-63
2021/11/01 12:00:30;;;;;;;0.20;0.20;;;;;;;11.57;94.24;98680.59;5104637;28;20031;-62
2021/11/01 12:02:57;;;;;;;0.20;0.20;;;;;;;11.56;94.78;98680.66;5104878;28;20077;-63
2021/11/01 12:05:37;;;;;;;0.20;0.20;;;;;;;11.57;94.54;98685.78;5104528;28;20081;-62
2021/11/01 12:19:07;;;;;;;0.20;0.20;;;;;;;11.58;94.32;98700.47;5081721;28;20074;-64
2021/11/01 12:21:38;;;;;;;0.40;0.40;;;;;;;11.52;94.02;98692.91;5080851;28;20381;-62
2021/11/01 12:24:11;;;;;;;0.30;0.30;;;;;;;11.58;94.11;98699.63;5081235;28;20111;-63
2021/11/01 12:26:40;;;;;;;1.95;1.30;;;;;;;11.60;92.97;98706.44;5080458;28;20039;-63
2021/11/01 12:29:10;;;;;;;0.30;0.30;;;;;;;11.52;92.79;98695.50;5081191;28;20025;-63
2021/11/01 12:31:36;;;;;;;0.30;0.30;;;;;;;11.52;92.27;98700.72;5081163;28;20075;-62
2021/11/01 12:34:05;;;;;;;0.20;0.20;;;;;;;11.45;92.37;98700.13;5102852;22;20068;-71
2021/11/01 12:58:59;;;;;;;0.20;0.20;;;;;;;11.42;94.01;98715.00;5083798;28;20040;-71
2021/11/01 13:01:29;;;;;;;0.28;0.28;;;;;;;11.51;94.40;98709.44;5083472;28;20497;-72
2021/11/01 13:04:44;;;;;;;8.88;2.50;;;;;;;11.49;94.05;98698.22;5083690;28;20182;-72
2021/11/01 13:09:31;;;;;;;0.20;0.20;;;;;;;11.52;93.05;98696.38;5083601;28;20021;-71
2021/11/01 13:20:17;;;;;;;0.30;0.30;;;;;;;11.36;92.77;98697.88;5083213;28;20021;-71
2021/11/01 13:22:44;;;;;;;0.50;0.50;;;;;;;11.39;93.73;98690.81;5082948;28;20061;-72
2021/11/01 13:25:35;;;;;;;1.38;1.27;;;;;;;11.47;93.28;98698.28;5083168;28;20028;-71
2021/11/01 13:37:25;;;;;;;0.20;0.20;;;;;;;11.55;92.84;98708.38;5083204;28;20344;-71
2021/11/01 13:39:59;;;;;;;0.30;0.30;;;;;;;11.55;90.95;98716.19;5086998;28;20016;-70
2021/11/01 13:42:24;;;;;;;0.22;0.22;;;;;;;11.48;91.53;98719.94;5087194;28;20024;-72
2021/11/01 13:44:50;;;;;;;0.45;0.45;;;;;;;11.46;92.03;98712.22;5102663;28;20029;-72
2021/11/01 13:47:17;;;;;;;0.73;0.73;;;;;;;11.36;91.21;98718.66;5087265;28;20076;-71
2021/11/01 13:49:46;;;;;;;0.63;0.63;;;;;;;11.35;91.11;98724.75;5086755;28;20016;-70
2021/11/01 13:52:37;;;;;;;0.30;0.30;;;;;;;11.38;91.15;98729.84;5087051;28;20044;-71
2021/11/01 13:55:23;;;;;;;0.30;0.30;;;;;;;11.42;91.01;98720.19;5086372;28;20092;-70
2021/11/01 13:57:58;;;;;;;1.23;1.23;;;;;;;11.39;91.03;98716.78;5087035;28;20100;-71
2021/11/01 14:19:10;;;;;;;0.28;0.28;;;;;;;11.24;91.13;98743.38;5086478;28;20028;-71
2021/11/01 14:30:19;;;;;;;0.30;0.30;;;;;;;11.08;88.94;98741.34;5086553;28;20028;-71
2021/11/01 14:35:32;;;;;;;0.25;0.25;;;;;;;11.13;89.54;98746.38;5086235;28;20262;-70
2021/11/01 15:21:18;;;;;;;0.25;0.25;;;;;;;10.81;89.59;98759.63;5062273;28;20579;-71
2021/11/01 16:20:09;;;;;;;0.30;0.30;;;;;;;10.64;88.75;98807.78;5083789;28;20077;-70
2021/11/01 16:22:35;;;;;;;0.30;0.30;;;;;;;10.70;88.72;98804.16;5083887;28;20031;-71
2021/11/01 16:25:02;;;;;;;0.22;0.22;;;;;;;10.68;88.78;98815.47;5084217;28;20031;-70
2021/11/01 16:27:28;;;;;;;0.20;0.20;;;;;;;10.69;88.98;98804.22;5083885;28;20029;-72
2021/11/01 16:30:01;;;;;;;0.20;0.20;;;;;;;10.62;89.08;98788.81;5083534;28;20515;-66
2021/11/01 16:32:41;;;;;;;0.50;0.50;;;;;;;10.73;89.46;98808.38;5083518;28;20103;-68
2021/11/01 16:35:08;;;;;;;0.20;0.20;;;;;;;10.74;88.78;98799.69;5083444;28;20021;-71
2021/11/01 16:38:03;;;;;;;0.30;0.30;;;;;;;10.73;88.29;98798.00;5083670;28;20162;-67
2021/11/01 16:40:23;;;;;;;0.20;0.20;;;;;;;10.61;88.55;98799.25;5084348;28;20054;-68
2021/11/01 16:42:49;;;;;;;0.50;0.50;;;;;;;10.57;88.66;98795.09;5083862;28;20025;-67
2021/11/01 16:45:25;;;;;;;0.20;0.20;;;;;;;10.50;88.83;98800.47;5083712;28;20028;-72
2021/11/01 16:47:50;;;;;;;0.30;0.30;;;;;;;10.46;88.64;98800.59;5083620;28;20480;-63
2021/11/01 16:50:16;;;;;;;0.20;0.20;;;;;;;10.36;88.98;98802.66;5083230;28;20055;-63
2021/11/01 16:52:44;;;;;;;0.20;0.20;;;;;;;10.35;89.46;98814.78;5083574;28;20012;-66
2021/11/01 16:57:58;;;;;;;0.50;0.50;;;;;;;10.37;88.92;98833.75;5083601;28;20050;-73
2021/11/01 17:06:39;;;;;;;0.30;0.30;;;;;;;10.28;88.70;98839.22;5083133;28;20089;-73
2021/11/01 17:22:29;;;;;;;1.33;1.23;;;;;;;10.20;88.51;98856.78;5083189;28;20031;-71
2021/11/01 17:25:08;;;;;;;0.30;0.30;;;;;;;10.26;88.69;98865.22;5083200;28;20052;-72
2021/11/01 18:53:35;;;;;;;0.30;0.30;;;;;;;10.37;87.14;98902.94;5085908;28;20035;-71
2021/11/01 18:56:07;;;;;;;0.47;0.47;;;;;;;10.44;86.68;98901.00;5085737;28;20024;-71
2021/11/01 18:58:35;;;;;;;0.50;0.50;;;;;;;10.31;86.31;98909.16;5085811;28;20043;-72
2021/11/01 19:01:01;;;;;;;0.30;0.30;;;;;;;10.35;86.77;98910.75;5085437;28;20065;-71
2021/11/01 19:03:34;;;;;;;0.30;0.30;;;;;;;10.28;87.45;98917.03;5085427;28;20017;-72
2021/11/01 19:08:57;;;;;;;0.30;0.30;;;;;;;10.28;87.11;98927.41;5085743;28;20035;-71
2021/11/01 20:04:17;;;;;;;0.30;0.30;;;;;;;9.92;87.59;98933.66;5084772;28;20067;-74
2021/11/01 20:07:04;;;;;;;0.30;0.30;;;;;;;9.96;87.86;98942.19;5084340;28;20120;-74
2021/11/01 20:12:35;;;;;;;0.30;0.30;;;;;;;9.91;88.09;98950.97;5084590;28;20050;-74
2021/11/01 21:25:15;;;;;;;0.30;0.30;;;;;;;9.67;88.87;99002.63;5083412;28;20108;-71
2021/11/01 21:27:21;;;;;;;0.20;0.20;;;;;;;9.74;88.18;99002.44;5079131;28;20039;-70
2021/11/01 21:29:48;;;;;;;0.30;0.30;;;;;;;9.75;87.99;99001.53;5083179;28;20031;-70
2021/11/01 21:32:13;;;;;;;0.30;0.30;;;;;;;9.80;87.15;99012.63;5082994;28;20029;-70
2021/11/01 21:34:43;;;;;;;0.20;0.20;;;;;;;9.77;87.17;99005.81;5083111;28;20021;-70
2021/11/01 21:37:09;;;;;;;0.20;0.20;;;;;;;9.66;87.76;99005.25;5082917;28;20025;-70
2021/11/01 21:39:36;;;;;;;0.30;0.30;;;;;;;9.71;87.82;99015.50;5083123;28;20461;-71
2021/11/01 21:42:02;;;;;;;0.30;0.30;;;;;;;9.67;88.08;99009.53;5082780;28;20064;-71
2021/11/01 21:44:31;;;;;;;0.30;0.30;;;;;;;9.71;88.12;99010.31;5082973;28;20048;-71
2021/11/01 21:46:56;;;;;;;0.25;0.25;;;;;;;9.67;87.95;99004.34;5083040;28;20024;-70
2021/11/01 21:49:22;;;;;;;0.30;0.30;;;;;;;9.63;88.37;99003.56;5083135;28;20029;-70
2021/11/01 21:51:49;;;;;;;0.30;0.30;;;;;;;9.65;88.06;99006.97;5082193;28;20033;-70
2021/11/01 22:18:30;;;;;;;0.20;0.20;;;;;;;9.61;88.66;99015.75;5044125;28;20032;-71
2021/11/01 22:21:07;;;;;;;0.30;0.30;;;;;;;9.60;88.50;99016.63;5043579;28;20029;-71
2021/11/01 22:23:56;;;;;;;0.30;0.30;;;;;;;9.65;88.30;99006.97;5043506;28;20180;-71
2021/11/01 22:34:33;;;;;;;0.30;0.30;;;;;;;9.57;88.79;99019.28;5086119;28;20121;-70
2021/11/01 22:58:06;;;;;;;0.30;0.30;;;;;;;9.51;89.08;99012.53;5042826;28;20041;-70
2021/11/01 23:00:39;;;;;;;0.30;0.30;;;;;;;9.49;88.90;99003.13;5042962;28;20060;-69
2021/11/01 23:03:10;;;;;;;0.30;0.30;;;;;;;9.48;88.85;98998.81;5042895;28;20101;-71
2021/11/01 23:33:21;;;;;;;20.10;3.13;;;;;;;9.51;88.30;98993.53;5022192;28;20069;-71
2021/11/01 23:35:48;;;;;;;1.35;1.17;;;;;;;9.62;87.64;98999.28;5022607;28;20059;-71
2021/11/01 23:38:13;;;;;;;0.30;0.30;;;;;;;9.51;88.38;99006.50;5022726;28;20037;-71
2021/11/01 23:40:39;;;;;;;0.30;0.30;;;;;;;9.46;88.74;99010.94;5022653;28;20025;-71
2021/11/01 23:43:06;;;;;;;0.32;0.32;;;;;;;9.40;88.71;99018.00;5022284;28;20030;-71
2021/11/01 23:45:36;;;;;;;0.20;0.20;;;;;;;9.46;88.63;99008.34;5006151;28;20053;-71
2021/11/01 23:48:03;;;;;;;0.28;0.28;;;;;;;9.39;88.89;99018.06;5022542;28;20223;-71
2021/11/01 23:50:33;;;;;;;0.20;0.20;;;;;;;9.30;89.22;99011.34;5022059;28;20042;-70
2021/11/01 23:53:05;;;;;;;0.20;0.20;;;;;;;9.28;89.41;99019.16;5022162;28;20030;-71
2021/11/01 23:55:30;;;;;;;;;;;;;;;9.28;89.67;99026.09;5044027;28;20044;-71
2021/11/01 23:57:56;;;;;;;0.30;0.30;;;;;;;9.26;89.32;99008.00;5082116;28;19908;-71
